Time;durP1;ratioP1;P1;durP2;ratioP2;P2;SDS_P1;SDS_P2;PMS_P1;PMS_P2;Temp;Humidity;BMP_temperature;BMP_pressure;BME280_temperature;BME280_humidity;BME280_pressure;Samples;Min_cycle;Max_cycle;Signal;HPM_P1;HPM_P2
2022/06/02 00:01:50;;;;;;;5.30;3.30;;;;;;100433.80;;;;107531;1278;29206;-30
2022/06/02 00:04:31;;;;;;;5.20;3.70;;;;;;100433.14;;;;107444;1279;28823;-30
2022/06/02 00:07:08;;;;;;;4.60;3.40;;;;;;100435.29;;;;107499;1278;28853;-30
2022/06/02 00:10:13;;;;;;;5.50;3.40;;;;;;100430.66;;;;107525;1280;29017;-30
2022/06/02 00:12:50;;;;;;;4.70;3.80;;;;;;100434.31;;;;107518;1278;28528;-30
2022/06/02 00:15:31;;;;;;;4.80;3.40;;;;;;100442.54;;;;107534;1278;29750;-30
2022/06/02 00:18:27;;;;;;;4.90;3.40;;;;;;100442.24;;;;107531;1277;27648;-30
2022/06/02 00:21:33;;;;;;;4.90;3.40;;;;;;100442.38;;;;107528;1278;29344;-30
2022/06/02 00:24:39;;;;;;;5.60;3.60;;;;;;100440.89;;;;107552;1277;28798;-30
2022/06/02 00:27:28;;;;;;;5.00;3.60;;;;;;100441.64;;;;107491;1278;29795;-30
2022/06/02 00:30:20;;;;;;;5.00;3.70;;;;;;100437.64;;;;107535;1278;27627;-30
2022/06/02 00:33:16;;;;;;;5.00;3.60;;;;;;100438.37;;;;107531;1278;26720;-30
2022/06/02 00:35:54;;;;;;;5.30;3.20;;;;;;100442.90;;;;107537;1277;29862;-30
2022/06/02 00:38:35;;;;;;;5.80;3.40;;;;;;100448.63;;;;107557;1277;27411;-30
2022/06/02 00:41:34;;;;;;;5.60;3.80;;;;;;100453.90;;;;107517;1279;28647;-30
2022/06/02 00:44:29;;;;;;;6.20;4.40;;;;;;100458.46;;;;107326;1278;28536;-30
2022/06/02 00:47:34;;;;;;;5.70;3.30;;;;;;100463.02;;;;107533;1278;27462;-30
2022/06/02 00:50:39;;;;;;;5.50;3.50;;;;;;100466.48;;;;107520;1279;29793;-30
2022/06/02 00:53:41;;;;;;;5.10;3.60;;;;;;100468.42;;;;107557;1277;28763;-30
2022/06/02 00:59:52;;;;;;;5.90;3.70;;;;;;100483.44;;;;107546;1277;28706;-30
2022/06/02 01:02:21;;;;;;;4.90;3.80;;;;;;100492.27;;;;107538;1278;29591;-30
2022/06/02 01:04:48;;;;;;;5.00;3.40;;;;;;100485.54;;;;107516;1278;28628;-30
2022/06/02 01:07:49;;;;;;;5.00;3.40;;;;;;100490.33;;;;107518;1277;29689;-30
2022/06/02 01:10:36;;;;;;;5.10;3.70;;;;;;100493.14;;;;107535;1278;28655;-30
2022/06/02 01:13:42;;;;;;;5.40;3.70;;;;;;100499.17;;;;107525;1278;28546;-30
2022/06/02 01:16:34;;;;;;;5.10;3.80;;;;;;100499.21;;;;107523;1278;28649;-31
2022/06/02 01:19:29;;;;;;;5.20;3.70;;;;;;100506.47;;;;107541;1278;28156;-30
2022/06/02 01:22:20;;;;;;;5.00;3.80;;;;;;100508.92;;;;107537;1278;28556;-30
2022/06/02 01:25:47;;;;;;;5.50;3.60;;;;;;100498.05;;;;107561;1278;27670;-30
2022/06/02 01:28:58;;;;;;;6.20;4.40;;;;;;100497.76;;;;107518;1278;28644;-30
2022/06/02 01:31:53;;;;;;;5.40;3.80;;;;;;100498.88;;;;107068;1284;28686;-30
2022/06/02 01:35:09;;;;;;;5.50;4.00;;;;;;100490.62;;;;107536;1278;28818;-30
2022/06/02 01:37:50;;;;;;;5.20;3.70;;;;;;100498.95;;;;107534;1278;27391;-30
2022/06/02 01:40:39;;;;;;;5.40;3.90;;;;;;100488.35;;;;107550;1278;28515;-30
2022/06/02 01:43:28;;;;;;;4.80;3.60;;;;;;100478.20;;;;107563;1278;28743;-30
2022/06/02 01:46:31;;;;;;;5.50;3.60;;;;;;100482.77;;;;107554;1277;28672;-30
2022/06/02 01:49:22;;;;;;;5.00;3.90;;;;;;100485.10;;;;107546;1278;28779;-30
2022/06/02 01:52:16;;;;;;;5.20;3.70;;;;;;100474.05;;;;107562;1278;28785;-30
2022/06/02 01:54:58;;;;;;;5.60;4.00;;;;;;100476.91;;;;107533;1277;27592;-30
2022/06/02 01:57:39;;;;;;;5.10;4.00;;;;;;100473.44;;;;107531;1278;28772;-30
2022/06/02 02:00:18;;;;;;;5.30;3.60;;;;;;100462.40;;;;107547;1278;29490;-30
2022/06/02 02:03:11;;;;;;;5.50;3.90;;;;;;100448.52;;;;107548;1278;28872;-30
2022/06/02 02:06:08;;;;;;;6.00;3.70;;;;;;100446.95;;;;107524;1277;27392;-30
2022/06/02 02:09:22;;;;;;;5.40;4.10;;;;;;100434.98;;;;107534;1277;28614;-30
2022/06/02 02:11:52;;;;;;;5.20;3.90;;;;;;100425.89;;;;107518;1277;26184;-30
2022/06/02 02:14:50;;;;;;;5.20;3.90;;;;;;100413.13;;;;107559;1278;27416;-30
2022/06/02 02:17:38;;;;;;;4.90;3.90;;;;;;100407.87;;;;107557;1277;30116;-30
2022/06/02 02:20:32;;;;;;;5.20;4.00;;;;;;100413.05;;;;107535;1278;29235;-29
2022/06/02 02:23:36;;;;;;;4.60;3.40;;;;;;100420.63;;;;107544;1277;28670;-29
2022/06/02 02:26:15;;;;;;;;;;;;;;100429.25;;;;107560;1277;28720;-29
2022/06/02 02:29:07;;;;;;;5.10;3.90;;;;;;100436.15;;;;107536;1278;28765;-29
2022/06/02 02:32:05;;;;;;;5.50;3.80;;;;;;100429.61;;;;107528;1278;28932;-29
2022/06/02 02:34:55;;;;;;;6.50;4.20;;;;;;100424.75;;;;107559;1277;28593;-29
2022/06/02 02:37:36;;;;;;;5.30;3.80;;;;;;100427.55;;;;107533;1277;28658;-29
2022/06/02 02:40:14;;;;;;;5.70;4.00;;;;;;100435.96;;;;107538;1278;29580;-29
2022/06/02 02:42:53;;;;;;;5.00;3.60;;;;;;100446.19;;;;107501;1277;26653;-29
2022/06/02 02:45:33;;;;;;;5.30;3.90;;;;;;100456.23;;;;107563;1278;28575;-29
2022/06/02 02:48:49;;;;;;;4.70;3.50;;;;;;100471.02;;;;107553;1277;27338;-29
2022/06/02 02:51:42;;;;;;;5.10;3.90;;;;;;100496.59;;;;107564;1278;28620;-29
2022/06/02 02:54:33;;;;;;;5.50;3.90;;;;;;100511.95;;;;107545;1277;27377;-29
2022/06/02 02:57:18;;;;;;;5.30;3.80;;;;;;100523.14;;;;107559;1278;27670;-29
2022/06/02 03:00:09;;;;;;;5.60;4.00;;;;;;100522.74;;;;107539;1278;27544;-30
2022/06/02 03:03:12;;;;;;;4.90;4.00;;;;;;100526.13;;;;107561;1277;27450;-30
2022/06/02 03:06:13;;;;;;;4.80;3.70;;;;;;100532.13;;;;107547;1277;28690;-30
2022/06/02 03:09:08;;;;;;;5.10;4.00;;;;;;100543.36;;;;107556;1278;28684;-30
2022/06/02 03:11:54;;;;;;;4.60;3.80;;;;;;100564.38;;;;107531;1280;28799;-30
2022/06/02 03:14:52;;;;;;;5.60;3.90;;;;;;100582.73;;;;107549;1281;27608;-30
2022/06/02 03:18:01;;;;;;;5.70;3.80;;;;;;100573.48;;;;107532;1278;28658;-30
2022/06/02 03:21:25;;;;;;;5.10;3.70;;;;;;100572.80;;;;107539;1277;28292;-30
2022/06/02 03:24:27;;;;;;;5.00;4.20;;;;;;100581.98;;;;107509;1277;26501;-30
2022/06/02 03:27:07;;;;;;;5.20;4.10;;;;;;100597.55;;;;107540;1278;29683;-30
2022/06/02 03:30:21;;;;;;;4.90;3.80;;;;;;100603.16;;;;107527;1277;29369;-29
2022/06/02 03:33:13;;;;;;;4.80;3.70;;;;;;100605.91;;;;107538;1278;29548;-30
2022/06/02 03:36:09;;;;;;;5.20;3.70;;;;;;100608.03;;;;107545;1277;26450;-30
2022/06/02 03:39:04;;;;;;;5.00;3.90;;;;;;100603.85;;;;107494;1277;28921;-30
2022/06/02 03:42:03;;;;;;;5.40;3.80;;;;;;100609.11;;;;107536;1277;28808;-30
2022/06/02 03:44:45;;;;;;;5.00;3.80;;;;;;100612.97;;;;107549;1277;27239;-30
2022/06/02 03:47:49;;;;;;;4.50;3.70;;;;;;100604.45;;;;107526;1277;29689;-30
2022/06/02 03:50:39;;;;;;;5.30;3.70;;;;;;100583.68;;;;107504;1277;26491;-30
2022/06/02 03:53:19;;;;;;;4.60;3.50;;;;;;100580.07;;;;107561;1277;27508;-30
2022/06/02 03:56:24;;;;;;;5.20;4.20;;;;;;100568.86;;;;107549;1277;28627;-30
2022/06/02 03:59:14;;;;;;;4.80;4.00;;;;;;100570.11;;;;107552;1277;28211;-30
2022/06/02 04:01:49;;;;;;;5.50;3.80;;;;;;100575.14;;;;107518;1278;28561;-30
2022/06/02 04:05:04;;;;;;;5.10;4.00;;;;;;100577.39;;;;107529;1277;27493;-30
2022/06/02 04:07:52;;;;;;;;;;;;;;100578.66;;;;107404;1278;27794;-30
2022/06/02 04:11:02;;;;;;;5.10;3.90;;;;;;100583.39;;;;107525;1278;28545;-30
2022/06/02 04:13:43;;;;;;;5.00;3.60;;;;;;100582.23;;;;107522;1278;28735;-30
2022/06/02 04:16:51;;;;;;;6.10;3.60;;;;;;100582.42;;;;107531;1277;28699;-30
2022/06/02 04:23:23;;;;;;;5.00;3.80;;;;;;100591.72;;;;107543;1277;28706;-30
2022/06/02 04:26:05;;;;;;;6.00;4.00;;;;;;100596.95;;;;107543;1277;27565;-30
2022/06/02 04:29:08;;;;;;;5.10;3.90;;;;;;100596.70;;;;107563;1277;29871;-30
2022/06/02 04:32:03;;;;;;;5.20;3.90;;;;;;100599.82;;;;107553;1277;27538;-30
2022/06/02 04:34:58;;;;;;;4.80;3.70;;;;;;100605.99;;;;107537;1277;27530;-30
2022/06/02 04:37:51;;;;;;;5.70;4.00;;;;;;100602.63;;;;107545;1277;27390;-30
2022/06/02 04:40:37;;;;;;;5.30;3.60;;;;;;100601.88;;;;107559;1277;28745;-30
2022/06/02 04:43:27;;;;;;;4.40;3.60;;;;;;100600.06;;;;107547;1280;28789;-30
2022/06/02 04:46:34;;;;;;;5.60;3.90;;;;;;100605.39;;;;107546;1277;28107;-30
2022/06/02 04:49:17;;;;;;;5.10;3.70;;;;;;100607.83;;;;107533;1277;28597;-30
2022/06/02 04:52:20;;;;;;;5.20;3.90;;;;;;100611.39;;;;107544;1278;26516;-30
2022/06/02 04:55:04;;;;;;;4.80;3.70;;;;;;100612.47;;;;107555;1277;28754;-30
2022/06/02 04:58:23;;;;;;;5.00;3.80;;;;;;100610.26;;;;107556;1277;28710;-30
2022/06/02 05:01:12;;;;;;;5.40;4.00;;;;;;100603.06;;;;107513;1277;27625;-30
2022/06/02 05:04:05;;;;;;;4.70;3.60;;;;;;100595.88;;;;107557;1277;28696;-30
2022/06/02 05:06:46;;;;;;;5.20;3.50;;;;;;100596.85;;;;107530;1277;29652;-30
2022/06/02 05:09:35;;;;;;;5.00;3.40;;;;;;100599.77;;;;107536;1278;26569;-30
2022/06/02 05:12:47;;;;;;;4.70;3.60;;;;;;100602.64;;;;107576;1277;29766;-31
2022/06/02 05:16:17;;;;;;;5.40;3.90;;;;;;100601.08;;;;107539;1277;27790;-30
2022/06/02 05:19:23;;;;;;;4.30;3.20;;;;;;100595.04;;;;107557;1277;28720;-30
2022/06/02 05:22:32;;;;;;;5.00;3.40;;;;;;100583.35;;;;107534;1277;26588;-30
2022/06/02 05:25:37;;;;;;;4.40;3.40;;;;;;100583.98;;;;107562;1277;27264;-30
2022/06/02 05:28:28;;;;;;;4.90;3.70;;;;;;100577.77;;;;107416;1277;215501;-30
2022/06/02 05:31:30;;;;;;;6.00;4.10;;;;;;100576.60;;;;107535;1277;28552;-30
2022/06/02 05:34:26;;;;;;;4.70;3.50;;;;;;100586.85;;;;107515;1278;28764;-30
2022/06/02 05:37:25;;;;;;;5.30;3.80;;;;;;100586.92;;;;107531;1277;27660;-30
2022/06/02 05:40:13;;;;;;;5.10;3.60;;;;;;100581.70;;;;107547;1277;28670;-30
2022/06/02 05:43:20;;;;;;;5.10;3.70;;;;;;100576.52;;;;107564;1277;27577;-28
2022/06/02 05:46:08;;;;;;;5.30;3.20;;;;;;100581.85;;;;107551;1277;28602;-29
2022/06/02 05:49:00;;;;;;;12.20;4.20;;;;;;100589.10;;;;107559;1277;29709;-29
2022/06/02 05:51:41;;;;;;;7.10;4.30;;;;;;100576.85;;;;107556;1277;28707;-29
2022/06/02 05:54:27;;;;;;;5.90;3.70;;;;;;100575.95;;;;107561;1277;26410;-29
2022/06/02 05:57:28;;;;;;;6.60;4.10;;;;;;100584.01;;;;107540;1277;27590;-29
2022/06/02 06:00:32;;;;;;;7.70;4.00;;;;;;100598.20;;;;107561;1277;27293;-29
2022/06/02 06:03:13;;;;;;;5.70;3.40;;;;;;100613.36;;;;107538;1277;28646;-30
2022/06/02 06:06:12;;;;;;;6.90;3.80;;;;;;100628.22;;;;107530;1277;28648;-29
2022/06/02 06:09:04;;;;;;;6.10;3.80;;;;;;100635.60;;;;107556;1277;28710;-29
2022/06/02 06:11:48;;;;;;;7.20;4.30;;;;;;100630.30;;;;107550;1277;28836;-29
2022/06/02 06:14:29;;;;;;;7.30;3.80;;;;;;100619.48;;;;107537;1278;28636;-29
2022/06/02 06:17:14;;;;;;;8.50;4.00;;;;;;100610.77;;;;107526;1276;28748;-29
2022/06/02 06:20:04;;;;;;;6.60;3.50;;;;;;100609.13;;;;107414;1278;29472;-30
2022/06/02 06:23:05;;;;;;;7.30;3.60;;;;;;100607.83;;;;107485;1277;28123;-39
2022/06/02 06:26:04;;;;;;;6.50;3.70;;;;;;100613.23;;;;107316;1278;29718;-30
2022/06/02 06:28:35;;;;;;;5.40;3.60;;;;;;100621.27;;;;107513;1278;27496;-28
2022/06/02 06:31:30;;;;;;;6.60;3.50;;;;;;100615.13;;;;107539;1280;28665;-28
2022/06/02 06:34:32;;;;;;;7.20;3.60;;;;;;100624.92;;;;107520;1277;28707;-28
2022/06/02 06:37:52;;;;;;;6.30;3.20;;;;;;100629.63;;;;107533;1277;29578;-29
2022/06/02 06:41:15;;;;;;;6.00;3.40;;;;;;100628.48;;;;107539;1278;28789;-30
2022/06/02 06:44:10;;;;;;;5.40;3.50;;;;;;100627.90;;;;107499;1277;26495;-29
2022/06/02 06:47:04;;;;;;;6.30;3.60;;;;;;100632.63;;;;107301;1278;28768;-29
2022/06/02 06:49:44;;;;;;;6.20;3.40;;;;;;100635.48;;;;107527;1278;27617;-29
2022/06/02 06:52:29;;;;;;;6.40;3.10;;;;;;100632.34;;;;107548;1278;27537;-29
2022/06/02 06:55:17;;;;;;;5.10;3.10;;;;;;100632.59;;;;107402;1278;28870;-30
2022/06/02 06:57:48;;;;;;;6.50;3.10;;;;;;100634.89;;;;107535;1277;28531;-30
2022/06/02 07:00:30;;;;;;;6.40;3.00;;;;;;100638.21;;;;107515;1277;28697;-29
2022/06/02 07:03:15;;;;;;;5.00;3.40;;;;;;100637.66;;;;107502;1277;28736;-30
2022/06/02 07:05:53;;;;;;;6.00;3.00;;;;;;100640.63;;;;107495;1278;28675;-30
2022/06/02 07:08:34;;;;;;;5.50;2.90;;;;;;100643.79;;;;107512;1277;29780;-30
2022/06/02 07:14:55;;;;;;;7.50;2.90;;;;;;100648.05;;;;107497;1278;28815;-30
2022/06/02 07:17:39;;;;;;;5.50;3.00;;;;;;100651.65;;;;107304;1278;27621;-30
2022/06/02 07:20:17;;;;;;;7.20;3.20;;;;;;100652.27;;;;107492;1277;27543;-30
2022/06/02 07:23:17;;;;;;;5.70;3.40;;;;;;100654.02;;;;107534;1277;28799;-30
2022/06/02 07:26:03;;;;;;;4.30;2.40;;;;;;100653.55;;;;107395;1279;28681;-30
2022/06/02 07:28:57;;;;;;;6.00;2.90;;;;;;100657.24;;;;107514;1277;28735;-30
2022/06/02 07:31:45;;;;;;;4.60;3.00;;;;;;100666.39;;;;107266;1279;27547;-30
2022/06/02 07:34:43;;;;;;;5.00;2.80;;;;;;100665.29;;;;107501;1278;28688;-30
2022/06/02 07:37:42;;;;;;;5.30;2.70;;;;;;100665.23;;;;107488;1277;29690;-30
2022/06/02 07:40:26;;;;;;;4.90;2.50;;;;;;100668.48;;;;107489;1277;28659;-30
2022/06/02 07:43:33;;;;;;;4.90;2.50;;;;;;100670.46;;;;107503;1277;27465;-29
2022/06/02 07:46:29;;;;;;;6.20;2.70;;;;;;100679.97;;;;107535;1277;26617;-32
2022/06/02 07:49:23;;;;;;;4.00;2.40;;;;;;100683.30;;;;107515;1278;29332;-30
2022/06/02 07:52:05;;;;;;;5.50;2.50;;;;;;100695.59;;;;107536;1277;27904;-31
2022/06/02 07:54:48;;;;;;;5.30;2.30;;;;;;100698.14;;;;107503;1277;28697;-30
2022/06/02 07:57:33;;;;;;;4.50;2.00;;;;;;100704.01;;;;107533;1277;28610;-30
2022/06/02 08:00:22;;;;;;;5.30;2.40;;;;;;100710.52;;;;107535;1278;26699;-31
2022/06/02 08:03:02;;;;;;;5.10;2.40;;;;;;100716.39;;;;107567;1277;26395;-29
2022/06/02 08:05:51;;;;;;;4.00;2.50;;;;;;100718.32;;;;107535;1278;28744;-29
2022/06/02 08:09:02;;;;;;;5.70;2.40;;;;;;100713.50;;;;107515;1277;29569;-29
2022/06/02 08:12:18;;;;;;;4.50;2.30;;;;;;100713.95;;;;107031;1282;28687;-30
2022/06/02 08:15:08;;;;;;;5.70;2.30;;;;;;100726.25;;;;107497;1277;27569;-31
2022/06/02 08:17:48;;;;;;;3.70;1.90;;;;;;100730.08;;;;107505;1277;28722;-30
2022/06/02 08:20:42;;;;;;;4.80;2.10;;;;;;100732.52;;;;107532;1277;29649;-30
2022/06/02 08:23:46;;;;;;;3.70;2.00;;;;;;100743.36;;;;107488;1277;26455;-31
2022/06/02 08:26:20;;;;;;;4.60;2.20;;;;;;100753.03;;;;107512;1277;29640;-30
2022/06/02 08:29:08;;;;;;;4.90;2.30;;;;;;100754.08;;;;107485;1277;29667;-31
2022/06/02 08:31:59;;;;;;;3.90;2.60;;;;;;100748.73;;;;107518;1277;28130;-30
2022/06/02 08:35:31;;;;;;;3.60;2.00;;;;;;100751.01;;;;107377;1279;28693;-29
2022/06/02 08:38:26;;;;;;;4.50;1.90;;;;;;100748.21;;;;106896;1284;28816;-30
2022/06/02 08:41:33;;;;;;;4.10;2.20;;;;;;100749.90;;;;106910;1284;28727;-29
2022/06/02 08:44:24;;;;;;;3.80;2.10;;;;;;100751.72;;;;107454;1277;28707;-29
2022/06/02 08:47:11;;;;;;;4.90;2.20;;;;;;100750.27;;;;107484;1277;27271;-29
2022/06/02 08:50:28;;;;;;;3.40;2.00;;;;;;100738.20;;;;107482;1277;28806;-29
2022/06/02 08:53:16;;;;;;;3.90;2.10;;;;;;100750.68;;;;106993;1283;27524;-29
2022/06/02 08:56:16;;;;;;;3.60;2.10;;;;;;100753.00;;;;107460;1277;29545;-37
2022/06/02 08:59:15;;;;;;;2.90;1.80;;;;;;100750.66;;;;107436;1278;28611;-30
2022/06/02 09:01:48;;;;;;;4.40;2.00;;;;;;100755.74;;;;107499;1277;27374;-30
2022/06/02 09:05:02;;;;;;;3.40;1.70;;;;;;100751.21;;;;107552;1278;28835;-31
2022/06/02 09:08:06;;;;;;;4.20;2.00;;;;;;100767.11;;;;107508;1278;29444;-30
2022/06/02 09:10:55;;;;;;;;;;;;;;100770.39;;;;107519;1277;28742;-30
2022/06/02 09:14:13;;;;;;;3.50;1.60;;;;;;100777.39;;;;107399;1278;28195;-30
2022/06/02 09:17:03;;;;;;;3.40;2.00;;;;;;100775.68;;;;107498;1277;27541;-30
2022/06/02 09:20:06;;;;;;;3.10;1.50;;;;;;100770.86;;;;107520;1278;29891;-31
2022/06/02 09:23:03;;;;;;;4.90;1.80;;;;;;100764.73;;;;107508;1278;27551;-31
2022/06/02 09:26:29;;;;;;;3.20;1.70;;;;;;100765.04;;;;107248;1278;28726;-31
2022/06/02 09:29:22;;;;;;;3.60;1.70;;;;;;100766.95;;;;107493;1277;28695;-30
2022/06/02 09:32:19;;;;;;;3.90;1.80;;;;;;100747.44;;;;107511;1277;28627;-30
2022/06/02 09:35:31;;;;;;;3.20;1.80;;;;;;100742.99;;;;107502;1277;29793;-28
2022/06/02 09:38:42;;;;;;;3.90;2.00;;;;;;100752.41;;;;107505;1277;27540;-28
2022/06/02 09:41:42;;;;;;;4.10;1.70;;;;;;100747.16;;;;107555;1277;28681;-29
2022/06/02 09:44:27;;;;;;;2.40;1.30;;;;;;100751.39;;;;107570;1277;27657;-30
2022/06/02 09:47:21;;;;;;;3.30;1.70;;;;;;100754.08;;;;107538;1277;27473;-30
2022/06/02 09:50:53;;;;;;;3.70;1.80;;;;;;100755.44;;;;107479;1277;29371;-30
2022/06/02 09:54:02;;;;;;;3.20;1.50;;;;;;100750.81;;;;107482;1277;28609;-30
2022/06/02 10:00:41;;;;;;;3.30;1.50;;;;;;100749.59;;;;107504;1278;29659;-29
2022/06/02 10:03:52;;;;;;;3.40;1.70;;;;;;100747.66;;;;107503;1277;27378;-29
2022/06/02 10:07:15;;;;;;;3.40;1.50;;;;;;100749.98;;;;107501;1277;28536;-29
2022/06/02 10:10:22;;;;;;;3.50;1.60;;;;;;100750.31;;;;107488;1277;28727;-29
2022/06/02 10:13:20;;;;;;;3.30;1.40;;;;;;100750.20;;;;107491;1277;27274;-29
2022/06/02 10:16:21;;;;;;;5.10;1.80;;;;;;100751.73;;;;107431;1278;28725;-29
2022/06/02 10:19:25;;;;;;;3.30;1.40;;;;;;100751.71;;;;107490;1277;27672;-29
2022/06/02 10:22:27;;;;;;;3.10;1.30;;;;;;100757.77;;;;107501;1277;30079;-29
2022/06/02 10:25:36;;;;;;;2.90;1.30;;;;;;100760.98;;;;107428;1277;26453;-29
2022/06/02 10:28:23;;;;;;;3.80;1.40;;;;;;100759.05;;;;107488;1277;28622;-30
2022/06/02 10:31:43;;;;;;;2.70;1.50;;;;;;100760.20;;;;107488;1277;28594;-29
2022/06/02 10:35:09;;;;;;;2.70;1.10;;;;;;100758.38;;;;107473;1278;29610;-30
2022/06/02 10:37:59;;;;;;;2.50;1.10;;;;;;100751.92;;;;107263;1277;29763;-30
2022/06/02 10:41:09;;;;;;;2.50;1.00;;;;;;100751.77;;;;107499;1277;29417;-29
2022/06/02 10:43:55;;;;;;;3.00;1.00;;;;;;100755.45;;;;107485;1278;27378;-29
2022/06/02 10:46:50;;;;;;;3.00;1.00;;;;;;100753.69;;;;107502;1277;27352;-30
2022/06/02 10:50:00;;;;;;;2.00;0.90;;;;;;100756.98;;;;107458;1277;28867;-32
2022/06/02 10:53:05;;;;;;;2.30;0.90;;;;;;100752.27;;;;107477;1277;28551;-31
2022/06/02 10:55:49;;;;;;;2.20;0.90;;;;;;100744.33;;;;107476;1277;27592;-29
2022/06/02 10:58:37;;;;;;;2.70;1.00;;;;;;100753.46;;;;107475;1278;27439;-30
2022/06/02 11:01:44;;;;;;;2.20;0.80;;;;;;100751.85;;;;107466;1278;28708;-31
2022/06/02 11:04:58;;;;;;;1.90;0.90;;;;;;100754.73;;;;107484;1277;26592;-29
2022/06/02 11:07:43;;;;;;;;;;;;;;100752.70;;;;107390;1278;28700;-29
2022/06/02 11:10:30;;;;;;;1.30;0.70;;;;;;100753.79;;;;107495;1277;28692;-29
2022/06/02 11:13:41;;;;;;;1.60;0.80;;;;;;100747.91;;;;107505;1278;28718;-31
2022/06/02 11:16:46;;;;;;;3.50;0.80;;;;;;100756.66;;;;107346;1277;28870;-30
2022/06/02 11:19:34;;;;;;;1.50;0.60;;;;;;100759.06;;;;107493;1278;28188;-31
2022/06/02 11:22:32;;;;;;;1.60;0.70;;;;;;100757.41;;;;107498;1278;28681;-31
2022/06/02 11:25:39;;;;;;;2.70;0.80;;;;;;100758.27;;;;107483;1277;29655;-29
2022/06/02 11:28:51;;;;;;;1.10;0.50;;;;;;100756.02;;;;107511;1277;26235;-30
2022/06/02 11:32:09;;;;;;;1.50;0.60;;;;;;100752.33;;;;107505;1277;28749;-30
2022/06/02 11:35:22;;;;;;;1.10;0.50;;;;;;100757.29;;;;107002;1282;28758;-30
2022/06/02 11:38:29;;;;;;;1.30;0.60;;;;;;100762.20;;;;107019;1282;28037;-31
2022/06/02 11:41:27;;;;;;;2.50;0.80;;;;;;100763.11;;;;107495;1277;28589;-30
2022/06/02 11:44:29;;;;;;;2.20;0.60;;;;;;100763.52;;;;107492;1277;28667;-30
2022/06/02 11:47:47;;;;;;;2.30;0.60;;;;;;100776.71;;;;107520;1278;27442;-29
2022/06/02 11:50:38;;;;;;;1.70;0.70;;;;;;100777.80;;;;107491;1277;28747;-30
2022/06/02 11:53:35;;;;;;;1.80;0.60;;;;;;100772.98;;;;107506;1277;28697;-29
2022/06/02 11:56:49;;;;;;;1.50;0.60;;;;;;100775.24;;;;107521;1278;27395;-29
2022/06/02 11:59:45;;;;;;;0.80;0.50;;;;;;100773.69;;;;107462;1278;29617;-30
2022/06/02 12:03:00;;;;;;;1.40;0.60;;;;;;100771.00;;;;107482;1277;28636;-29
2022/06/02 12:06:09;;;;;;;1.20;0.60;;;;;;100771.70;;;;107477;1277;29645;-31
2022/06/02 12:09:06;;;;;;;1.70;0.60;;;;;;100768.40;;;;107486;1277;27318;-30
2022/06/02 12:12:24;;;;;;;2.20;0.70;;;;;;100773.19;;;;107474;1277;26249;-31
2022/06/02 12:15:23;;;;;;;2.70;0.80;;;;;;100775.53;;;;107490;1278;27388;-30
2022/06/02 12:18:26;;;;;;;1.70;0.60;;;;;;100779.29;;;;107483;1278;28749;-30
2022/06/02 12:21:20;;;;;;;2.30;0.80;;;;;;100781.45;;;;107487;1278;27538;-32
2022/06/02 12:24:17;;;;;;;5.20;0.80;;;;;;100783.68;;;;107484;1277;29035;-30
2022/06/02 12:27:27;;;;;;;2.50;0.90;;;;;;100782.02;;;;107496;1277;29599;-31
2022/06/02 12:30:18;;;;;;;4.60;1.40;;;;;;100779.20;;;;107529;1277;27508;-30
2022/06/02 12:33:17;;;;;;;2.70;0.80;;;;;;100785.56;;;;107464;1277;29524;-30
2022/06/02 12:36:50;;;;;;;3.10;0.90;;;;;;100783.68;;;;107265;1279;26253;-30
2022/06/02 12:39:54;;;;;;;2.50;0.80;;;;;;100784.43;;;;107253;1278;27584;-29
2022/06/02 12:42:57;;;;;;;2.10;0.80;;;;;;100787.95;;;;107511;1277;26289;-31
2022/06/02 12:45:49;;;;;;;1.90;0.70;;;;;;100779.89;;;;107515;1277;26176;-29
2022/06/02 12:48:47;;;;;;;2.90;0.90;;;;;;100774.73;;;;107529;1277;28696;-30
2022/06/02 12:51:51;;;;;;;3.10;1.00;;;;;;100785.26;;;;107521;1277;29442;-30
2022/06/02 12:55:17;;;;;;;2.40;0.90;;;;;;100786.33;;;;107498;1277;28730;-30
2022/06/02 12:58:05;;;;;;;4.90;0.90;;;;;;100787.38;;;;107463;1278;28578;-30
2022/06/02 13:01:09;;;;;;;1.80;0.70;;;;;;100782.98;;;;107496;1278;27457;-31
2022/06/02 13:04:26;;;;;;;3.10;0.80;;;;;;100784.18;;;;107468;1279;27413;-30
2022/06/02 13:07:49;;;;;;;3.30;1.10;;;;;;100780.41;;;;107507;1278;28641;-31
2022/06/02 13:10:51;;;;;;;3.10;1.00;;;;;;100778.09;;;;107485;1278;27601;-31
2022/06/02 13:13:39;;;;;;;2.00;0.90;;;;;;100779.39;;;;107513;1277;28665;-32
2022/06/02 13:16:40;;;;;;;3.40;1.00;;;;;;100782.58;;;;107538;1277;28739;-30
2022/06/02 13:19:27;;;;;;;3.30;0.90;;;;;;100785.86;;;;107522;1277;28753;-30
2022/06/02 13:22:16;;;;;;;2.00;0.80;;;;;;100785.72;;;;107520;1278;26912;-31
2022/06/02 13:25:08;;;;;;;1.80;0.80;;;;;;100781.65;;;;107471;1278;29487;-30
2022/06/02 13:28:13;;;;;;;1.90;1.10;;;;;;100778.91;;;;109058;1277;245006;-31
2022/06/02 13:31:13;;;;;;;3.00;1.30;;;;;;100785.70;;;;107321;1278;29390;-30
2022/06/02 13:34:50;;;;;;;2.40;1.10;;;;;;100780.00;;;;107329;1278;28649;-31
2022/06/02 13:37:46;;;;;;;3.40;1.10;;;;;;100783.38;;;;106608;1284;28568;-31
2022/06/02 13:40:29;;;;;;;3.30;1.20;;;;;;100790.58;;;;107685;1285;28846;-31
2022/06/02 13:42:59;;;;;;;5.70;2.10;;;;;;100795.96;;;;107291;1279;28807;-32
2022/06/02 13:46:23;;;;;;;2.80;1.60;;;;;;100791.23;;;;107520;1277;28645;-29
2022/06/02 13:49:31;;;;;;;2.50;1.10;;;;;;100793.96;;;;107187;1277;27277;-31
2022/06/02 13:52:29;;;;;;;3.40;1.30;;;;;;100794.25;;;;107467;1278;28782;-32
2022/06/02 13:58:23;;;;;;;3.30;1.30;;;;;;100795.84;;;;107517;1278;28655;-30
2022/06/02 14:01:20;;;;;;;2.40;1.00;;;;;;100804.05;;;;107545;1277;28947;-30
2022/06/02 14:04:41;;;;;;;3.50;1.40;;;;;;100803.55;;;;107512;1278;28730;-30
2022/06/02 14:07:33;;;;;;;3.00;1.20;;;;;;100808.20;;;;107507;1277;28555;-30
2022/06/02 14:10:45;;;;;;;2.80;1.30;;;;;;100808.80;;;;107527;1277;28835;-30
2022/06/02 14:13:50;;;;;;;5.10;1.40;;;;;;100812.58;;;;107529;1277;28790;-31
2022/06/02 14:16:39;;;;;;;2.30;1.20;;;;;;100814.33;;;;107307;1277;28686;-30
2022/06/02 14:19:47;;;;;;;3.40;1.50;;;;;;100810.91;;;;107506;1277;29346;-31
2022/06/02 14:22:38;;;;;;;4.90;1.40;;;;;;100823.54;;;;107509;1277;27805;-30
2022/06/02 14:25:24;;;;;;;3.60;1.40;;;;;;100819.40;;;;107532;1278;27277;-31
2022/06/02 14:28:13;;;;;;;3.10;1.40;;;;;;100822.67;;;;107548;1278;29521;-31
2022/06/02 14:30:55;;;;;;;3.50;1.60;;;;;;100815.98;;;;107534;1278;29289;-30
2022/06/02 14:33:39;;;;;;;3.90;1.30;;;;;;100816.22;;;;107517;1277;27668;-29
2022/06/02 14:36:41;;;;;;;2.50;1.50;;;;;;100822.09;;;;107542;1278;28912;-30
2022/06/02 14:39:27;;;;;;;3.80;1.50;;;;;;100821.90;;;;107548;1280;27538;-29
2022/06/02 14:43:28;;;;;;;2.50;1.30;;;;;;100819.80;;;;107516;1277;28724;-29
2022/06/02 14:46:00;;;;;;;3.90;1.50;;;;;;100819.86;;;;107417;1279;27482;-30
2022/06/02 14:48:27;;;;;;;2.90;1.40;;;;;;100816.42;;;;107497;1277;27430;-30
2022/06/02 14:51:25;;;;;;;3.40;1.40;;;;;;100831.99;;;;107514;1278;28691;-30
2022/06/02 14:54:42;;;;;;;2.60;1.50;;;;;;100836.98;;;;107516;1278;28577;-30
2022/06/02 14:57:29;;;;;;;2.70;1.60;;;;;;100840.31;;;;107469;1277;28538;-30
2022/06/02 15:00:13;;;;;;;8.00;6.80;;;;;;100841.89;;;;107538;1279;29657;-30
2022/06/02 15:03:14;;;;;;;7.10;5.20;;;;;;100842.20;;;;107522;1278;28808;-30
2022/06/02 15:06:01;;;;;;;5.60;4.40;;;;;;100848.17;;;;107501;1276;28792;-30
2022/06/02 15:09:01;;;;;;;5.20;3.50;;;;;;100848.66;;;;107531;1278;28800;-30
2022/06/02 15:12:05;;;;;;;5.80;3.70;;;;;;100847.98;;;;107524;1278;27631;-30
2022/06/02 15:14:46;;;;;;;5.40;3.70;;;;;;100848.96;;;;107511;1277;28720;-30
2022/06/02 15:17:38;;;;;;;4.50;2.80;;;;;;100851.03;;;;107465;1277;28694;-31
2022/06/02 15:20:17;;;;;;;4.70;2.30;;;;;;100852.34;;;;107506;1277;29635;-30
2022/06/02 15:23:25;;;;;;;3.90;2.60;;;;;;100857.41;;;;107522;1277;28452;-30
2022/06/02 15:26:30;;;;;;;4.10;2.60;;;;;;100861.20;;;;107351;1279;29153;-30
2022/06/02 15:29:35;;;;;;;4.00;2.30;;;;;;100854.44;;;;107490;1279;28699;-30
2022/06/02 15:32:45;;;;;;;3.90;2.60;;;;;;100855.24;;;;107517;1278;27443;-30
2022/06/02 15:35:35;;;;;;;4.00;2.30;;;;;;100858.98;;;;107508;1279;29534;-30
2022/06/02 15:38:08;;;;;;;3.70;2.20;;;;;;100859.02;;;;107545;1278;27480;-30